Klamath Falls, OR (97601)

2:14 AM PST on December 10, 2016 (GMT -0800)
KYC Site | | Change Station
Active Advisory: Winter Weather Advisory

Elev 4131 ft 42.25 °N, 121.82 °W | Updated 3 seconds ago

Rain
Rain
37.8 °F
Feels Like 38 °F
N
0.0
Wind Variable Wind from North
Gusts 0.0 mph

Today
High -- | Low -- °F
--% Chance of Precip.
Yesterday
High -- | Low -- °F
Precip. -- in
Pressure 29.88 in
Visibility 3.0 miles
Clouds Few 1500 ft
Overcast 3200 ft
Windchill 38 °F
Dew Point 37 °F
Humidity 97%
Rainfall 0.11 in
Snow Depth Not available.
7:25 AM 4:35 PM
Waxing Gibbous, 82% visible
METAR KLMT 100953Z AUTO 02003KT 3SM -RA BR FEW015 OVC032 03/03 A2989 RMK AO2 SLP116 P0003 T00280028
Pressure 29.88 in
Visibility 3.0 miles
Clouds Few 1500 ft
Overcast 3200 ft
Windchill 38 °F
Dew Point 37 °F
Humidity 97%
Rainfall 0.11 in
Snow Depth Not available.
7:25 AM 4:35 PM
Waxing Gibbous, 82% visible
METAR KLMT 100953Z AUTO 02003KT 3SM -RA BR FEW015 OVC032 03/03 A2989 RMK AO2 SLP116 P0003 T00280028

10-Day Weather Forecast

Almanac

Astronomy

Dec. 10, 2016 Rise Set
Actual Time
Civil Twilight
Nautical Twilight
Astronomical Twilight
Moon
Length of Visible Light
Length of Day
Tomorrow will be .
, % of the Moon is Illuminated

Today's Extremes

State Highs State Lows

Community

WunderPhotos

Upload Photos

1,956,536 photos uploaded!

WunderBlog® & News

Nearby

Air Quality

  Air Quality AQ Index Pollutant
Not available.

Snow Depth

Station Depth Elevation

Earthquake Activity

City Distance Mag. Time & Date
Minimum magnitude displayed is 2.5.

Coastal Water Temperatures

Place Temperature

Stations

Nearby Weather Stations

Station Location Temp. Windchill Dew Point Humidity Wind Precip. Elev Updated Type
                   

Watches & Warnings

Winter Weather Advisory
Issued: 10:11 PM PST Dec. 9, 2016 – National Weather Service

... Winter Weather Advisory remains in effect until 10 am PST
Saturday...

* snow accumulations... 3 to 5 inches.

* Winds... southwest winds 15 to 20 mph.

* Elevation... above 4000 feet.

* Snowfall rates... mostly one half to 1 inch per hour through 5
am. Snowfall rates will diminish Saturday morning.

* Locations include... Highway 97 near Chemult... Highway 140 east
of Bly... winter rim and the Warner Mountains.

* Impacts... snow may be heavy at times... reducing visibilities.
Snow covered roads will make travel difficult.

* View the hazard area in detail at
http://weather.Gov/Medford/hazard

Precautionary/preparedness actions...

* slow down and allow extra time to reach your destination.

* Carry tire chains and be prepared for snow covered roads and
limited visibilities.

* See weather.Gov/Medford/cams for latest Road conditions.

* A Winter Weather Advisory for snow means that periods of snow
will cause travel difficulties.